createdAt,value
2022-08-27T00:04:48.116Z,28.36
2022-08-27T00:09:44.797Z,28.44
2022-08-27T00:14:41.397Z,28.46
2022-08-27T00:19:38.740Z,28.47
2022-08-27T00:24:35.566Z,28.65
2022-08-27T00:29:35.101Z,28.84
2022-08-27T00:34:31.895Z,28.78
2022-08-27T00:39:29.128Z,28.89
2022-08-27T00:44:25.862Z,29.02
2022-08-27T00:49:24.238Z,29.06
2022-08-27T00:54:20.923Z,29.22
2022-08-27T00:59:20.616Z,29.17
2022-08-27T01:04:17.183Z,29.35
2022-08-27T01:09:14.876Z,29.31
2022-08-27T01:14:11.486Z,29.49
2022-08-27T01:19:10.771Z,29.59
2022-08-27T01:24:13.638Z,29.14
2022-08-27T01:29:11.176Z,28.69
2022-08-27T01:34:08.138Z,28.91
2022-08-27T01:39:05.406Z,29.00
2022-08-27T01:44:02.157Z,29.20
2022-08-27T01:48:59.421Z,29.26
2022-08-27T01:53:55.933Z,29.14
2022-08-27T01:58:52.519Z,29.24
2022-08-27T02:03:49.145Z,29.26
2022-08-27T02:08:46.388Z,29.00
2022-08-27T02:13:43.006Z,28.92
2022-08-27T02:18:41.667Z,28.85
2022-08-27T02:23:41.443Z,28.80
2022-08-27T02:28:38.773Z,28.74
2022-08-27T02:33:35.456Z,28.74
2022-08-27T02:38:32.027Z,28.74
2022-08-27T02:43:28.712Z,28.87
2022-08-27T02:48:26.098Z,28.75
2022-08-27T02:53:22.832Z,28.60
2022-08-27T02:58:20.621Z,28.46
2022-08-27T03:03:17.296Z,28.19
2022-08-27T03:08:14.495Z,28.01
2022-08-27T03:13:11.075Z,28.22
2022-08-27T03:18:19.559Z,28.39
2022-08-27T03:23:17.584Z,28.09
2022-08-27T03:28:22.583Z,27.82
2022-08-27T03:33:21.005Z,27.50
2022-08-27T03:38:18.299Z,27.27
2022-08-27T03:43:15.406Z,27.02
2022-08-27T03:48:12.724Z,27.29
2022-08-27T03:53:09.992Z,27.52
2022-08-27T03:58:07.395Z,27.54
2022-08-27T04:03:05.327Z,27.47
2022-08-27T04:08:02.088Z,27.05
2022-08-27T04:12:58.705Z,26.79
2022-08-27T04:17:56.001Z,26.71
2022-08-27T04:22:52.697Z,27.00
2022-08-27T04:27:49.251Z,27.31
2022-08-27T04:32:45.858Z,27.52
2022-08-27T04:37:43.092Z,27.64
2022-08-27T04:42:39.631Z,27.81
2022-08-27T04:47:36.390Z,28.10
2022-08-27T04:52:32.963Z,28.17
2022-08-27T04:57:30.498Z,28.18
2022-08-27T05:02:27.072Z,27.96
2022-08-27T05:07:23.653Z,27.75
2022-08-27T05:12:20.159Z,27.52
2022-08-27T05:17:17.320Z,27.63
2022-08-27T05:22:13.858Z,26.96
2022-08-27T05:27:12.535Z,27.35
2022-08-27T05:32:09.731Z,27.77
2022-08-27T05:37:07.214Z,27.86
2022-08-27T05:42:04.167Z,28.10
2022-08-27T05:47:00.679Z,28.24
2022-08-27T05:51:57.248Z,28.49
2022-08-27T05:56:54.423Z,28.41
2022-08-27T06:01:51.760Z,28.68
2022-08-27T06:06:49.274Z,28.50
2022-08-27T06:11:45.872Z,28.64
2022-08-27T06:16:43.421Z,28.60
2022-08-27T06:21:40.643Z,28.34
2022-08-27T06:26:37.267Z,27.76
2022-08-27T06:31:34.858Z,27.72
2022-08-27T06:36:32.063Z,27.78
2022-08-27T06:41:28.743Z,27.86
2022-08-27T06:46:27.691Z,28.06
2022-08-27T06:51:25.669Z,28.20
2022-08-27T06:56:23.335Z,28.19
2022-08-27T07:01:21.717Z,28.38
2022-08-27T07:06:18.302Z,28.54
2022-08-27T07:11:15.219Z,28.25
2022-08-27T07:16:13.142Z,28.42
2022-08-27T07:21:09.814Z,28.73
2022-08-27T07:26:07.454Z,28.83
2022-08-27T07:31:04.175Z,28.70
2022-08-27T07:36:01.520Z,28.96
2022-08-27T07:40:58.506Z,29.09
2022-08-27T07:45:56.597Z,29.24
2022-08-27T07:50:53.487Z,29.45
2022-08-27T07:55:50.988Z,29.64
2022-08-27T08:00:47.563Z,29.90
2022-08-27T08:05:44.109Z,30.06
2022-08-27T08:10:40.693Z,30.21
2022-08-27T08:15:38.310Z,30.19
2022-08-27T08:20:56.497Z,30.29
2022-08-27T08:25:51.428Z,30.37
2022-08-27T08:30:48.877Z,30.39
2022-08-27T08:35:45.595Z,30.38
2022-08-27T08:40:43.064Z,30.41
2022-08-27T08:45:42.205Z,30.52
2022-08-27T08:50:49.602Z,30.54
2022-08-27T08:55:48.080Z,30.64
2022-08-27T09:00:45.621Z,30.72
2022-08-27T09:05:46.186Z,30.80
2022-08-27T09:10:44.681Z,30.90
2022-08-27T09:15:41.287Z,31.06
2022-08-27T09:20:38.563Z,31.22
2022-08-27T09:25:41.052Z,31.26
2022-08-27T09:30:41.734Z,31.46
2022-08-27T09:35:40.632Z,31.54
2022-08-27T09:40:41.352Z,31.58
2022-08-27T09:45:46.289Z,31.69
2022-08-27T09:50:46.613Z,31.84
2022-08-27T09:55:45.567Z,31.93
2022-08-27T10:00:42.715Z,32.00
2022-08-27T10:05:42.693Z,32.04
2022-08-27T10:10:43.249Z,31.85
2022-08-27T10:15:47.755Z,31.85
2022-08-27T10:20:53.959Z,31.87
2022-08-27T10:25:54.801Z,32.04
2022-08-27T10:31:02.260Z,32.23
2022-08-27T10:36:01.575Z,31.80
2022-08-27T10:41:02.284Z,32.05
2022-08-27T10:46:04.477Z,31.77
2022-08-27T10:51:06.014Z,31.63
2022-08-27T10:56:10.137Z,31.82
2022-08-27T11:01:16.612Z,32.22
2022-08-27T11:06:15.498Z,32.13
2022-08-27T11:11:57.155Z,32.22
2022-08-27T11:16:35.749Z,32.35
2022-08-27T11:21:34.781Z,32.57
2022-08-27T11:26:33.137Z,32.61
2022-08-27T11:31:34.627Z,32.74
2022-08-27T11:36:58.119Z,32.60
2022-08-27T11:42:00.539Z,32.85
2022-08-27T11:47:07.959Z,32.95
2022-08-27T11:52:07.029Z,32.50
2022-08-27T11:57:13.562Z,32.76
2022-08-27T12:02:13.109Z,32.79
2022-08-27T12:07:24.501Z,32.99
2022-08-27T12:12:25.460Z,32.92
2022-08-27T12:17:28.153Z,32.97
2022-08-27T12:22:56.811Z,33.01
2022-08-27T12:27:58.541Z,33.09
2022-08-27T12:32:56.304Z,33.09
2022-08-27T12:37:56.976Z,33.06
2022-08-27T12:43:05.675Z,33.17
2022-08-27T12:48:02.386Z,32.82
2022-08-27T12:53:03.243Z,33.03
2022-08-27T12:58:05.335Z,33.37
2022-08-27T13:03:19.839Z,33.17
2022-08-27T13:08:21.293Z,33.09
2022-08-27T13:13:19.601Z,32.76
2022-08-27T13:18:17.059Z,33.46
2022-08-27T13:23:19.830Z,33.37
2022-08-27T13:28:26.321Z,33.42
2022-08-27T13:33:24.155Z,33.41
2022-08-27T13:38:22.646Z,33.41
2022-08-27T13:43:21.595Z,33.55
2022-08-27T13:48:18.889Z,33.43
2022-08-27T13:53:48.852Z,33.42
2022-08-27T13:58:46.183Z,33.52
2022-08-27T14:03:47.307Z,33.51
2022-08-27T14:08:43.938Z,33.29
2022-08-27T14:13:43.469Z,33.32
2022-08-27T14:18:58.924Z,33.40
2022-08-27T14:23:56.212Z,33.52
2022-08-27T14:28:53.953Z,33.58
2022-08-27T14:33:53.494Z,33.61
2022-08-27T14:38:51.216Z,33.53
2022-08-27T14:43:49.266Z,33.71
2022-08-27T14:48:51.685Z,33.77
2022-08-27T14:53:50.559Z,33.53
2022-08-27T14:58:47.500Z,33.55
2022-08-27T15:03:46.403Z,33.60
2022-08-27T15:08:44.716Z,33.61
2022-08-27T15:13:42.365Z,33.61
2022-08-27T15:18:39.017Z,33.36
2022-08-27T15:23:36.944Z,33.55
2022-08-27T15:28:33.541Z,33.59
2022-08-27T15:33:30.892Z,33.55
2022-08-27T15:38:27.539Z,33.73
2022-08-27T15:43:25.104Z,33.87
2022-08-27T15:48:21.767Z,34.10
2022-08-27T15:53:21.458Z,34.03
2022-08-27T15:58:18.155Z,33.83
2022-08-27T16:03:16.168Z,33.76
2022-08-27T16:08:13.914Z,33.71
2022-08-27T16:13:11.259Z,33.67
2022-08-27T16:18:09.962Z,33.60
2022-08-27T16:23:07.294Z,33.50
2022-08-27T16:28:04.165Z,33.59
2022-08-27T16:33:01.780Z,33.61
2022-08-27T16:37:58.378Z,33.55
2022-08-27T16:42:55.023Z,33.55
2022-08-27T16:48:09.729Z,33.48
2022-08-27T16:53:08.429Z,33.46
2022-08-27T16:58:09.028Z,33.50
2022-08-27T17:03:06.603Z,33.44
2022-08-27T17:08:04.805Z,33.39
2022-08-27T17:13:04.168Z,33.39
2022-08-27T17:18:02.285Z,33.30
2022-08-27T17:22:59.647Z,33.15
2022-08-27T17:27:59.944Z,33.16
2022-08-27T17:32:58.113Z,33.12
2022-08-27T17:37:57.989Z,32.94
2022-08-27T17:42:54.584Z,32.85
2022-08-27T17:47:51.430Z,32.80
2022-08-27T17:52:48.764Z,32.68
2022-08-27T17:57:45.768Z,32.69
2022-08-27T18:02:43.816Z,32.58
2022-08-27T18:07:40.429Z,32.41
2022-08-27T18:12:39.168Z,32.40
2022-08-27T18:17:36.222Z,32.60
2022-08-27T18:22:38.829Z,32.67
2022-08-27T18:27:39.839Z,32.55
2022-08-27T18:32:36.502Z,32.49
2022-08-27T18:37:33.219Z,32.51
2022-08-27T18:42:30.689Z,32.63
2022-08-27T18:47:28.015Z,32.60
2022-08-27T18:52:24.607Z,32.47
2022-08-27T18:57:21.237Z,32.42
2022-08-27T19:02:19.929Z,32.00
2022-08-27T19:07:17.312Z,31.75
2022-08-27T19:12:14.074Z,31.73
2022-08-27T19:17:16.587Z,31.34
2022-08-27T19:22:13.219Z,31.53
2022-08-27T19:27:10.592Z,31.31
2022-08-27T19:32:07.250Z,31.48
2022-08-27T19:37:04.962Z,31.21
2022-08-27T19:42:01.516Z,31.13
2022-08-27T19:46:58.992Z,31.09
2022-08-27T19:51:55.602Z,30.90
2022-08-27T19:56:52.111Z,30.78
2022-08-27T20:01:52.200Z,30.87
2022-08-27T20:06:51.569Z,31.00
2022-08-27T20:11:49.842Z,31.20
2022-08-27T20:16:46.623Z,31.38
2022-08-27T20:21:44.452Z,31.33
2022-08-27T20:26:41.939Z,31.36
2022-08-27T20:31:38.790Z,31.30
2022-08-27T20:36:35.557Z,31.04
2022-08-27T20:41:32.136Z,30.26
2022-08-27T20:46:29.961Z,30.42
2022-08-27T20:51:26.882Z,30.45
2022-08-27T20:56:23.424Z,30.54
2022-08-27T21:01:20.142Z,30.28
2022-08-27T21:06:17.453Z,30.18
2022-08-27T21:11:14.757Z,30.19
2022-08-27T21:16:11.610Z,30.18
2022-08-27T21:21:08.532Z,30.12
2022-08-27T21:26:09.265Z,29.66
2022-08-27T21:31:06.432Z,29.29
2022-08-27T21:36:04.086Z,29.51
2022-08-27T21:41:00.672Z,29.78
2022-08-27T21:45:58.115Z,29.97
2022-08-27T21:50:54.757Z,29.95
2022-08-27T21:55:52.152Z,30.11
2022-08-27T22:00:49.863Z,30.21
2022-08-27T22:05:47.604Z,30.21
2022-08-27T22:10:45.700Z,30.42
2022-08-27T22:15:42.359Z,30.49
2022-08-27T22:20:39.769Z,30.38
2022-08-27T22:25:37.182Z,29.35
2022-08-27T22:30:33.996Z,28.90
2022-08-27T22:35:30.806Z,28.87
2022-08-27T22:40:28.316Z,28.80
2022-08-27T22:45:27.090Z,28.35
2022-08-27T22:50:23.952Z,27.77
2022-08-27T22:55:21.941Z,27.71
2022-08-27T23:00:20.747Z,27.69
2022-08-27T23:05:18.681Z,27.69
2022-08-27T23:10:16.892Z,28.18
2022-08-27T23:15:14.115Z,28.67
2022-08-27T23:20:11.401Z,28.83
2022-08-27T23:25:27.921Z,29.07
2022-08-27T23:30:27.411Z,29.19
2022-08-27T23:35:25.782Z,29.09
2022-08-27T23:40:24.174Z,29.09
2022-08-27T23:45:22.231Z,28.70
2022-08-27T23:50:19.485Z,28.73
2022-08-27T23:55:16.034Z,28.88
